Time;durP1;ratioP1;P1;durP2;ratioP2;P2;SDS_P1;SDS_P2;PMS_P1;PMS_P2;Temp;Humidity;BMP_temperature;BMP_pressure;BME280_temperature;BME280_humidity;BME280_pressure;Samples;Min_cycle;Max_cycle;Signal;HPM_P1;HPM_P2
2022/09/18 00:00:44;;;;;;;0.40;0.40;;;12.70;99.90;;;;;;5007942;28;20541;-71
2022/09/18 00:03:10;;;;;;;0.75;0.75;;;12.70;99.90;;;;;;5009972;28;20032;-71
2022/09/18 00:05:37;;;;;;;4.00;1.80;;;12.70;99.90;;;;;;5006747;28;20435;-71
2022/09/18 00:08:03;;;;;;;0.60;0.60;;;12.70;99.90;;;;;;5009568;28;20487;-73
2022/09/18 00:10:29;;;;;;;0.93;0.93;;;12.70;99.90;;;;;;5008085;28;20061;-72
2022/09/18 00:12:54;;;;;;;0.53;0.53;;;12.70;99.90;;;;;;5006295;28;20770;-71
2022/09/18 00:15:20;;;;;;;1.27;1.17;;;12.70;99.90;;;;;;5008131;28;20026;-71
2022/09/18 00:17:46;;;;;;;0.80;0.80;;;12.70;99.90;;;;;;5008830;28;20030;-70
2022/09/18 00:20:12;;;;;;;1.10;1.10;;;12.70;99.90;;;;;;4992198;28;20377;-71
2022/09/18 00:22:39;;;;;;;1.35;1.02;;;12.70;99.90;;;;;;5008087;28;20267;-70
2022/09/18 00:25:05;;;;;;;0.52;0.52;;;12.80;99.90;;;;;;5007754;28;20038;-71
2022/09/18 00:27:31;;;;;;;0.40;0.40;;;12.60;99.90;;;;;;5009114;28;20512;-71
2022/09/18 00:29:57;;;;;;;0.77;0.77;;;12.60;99.90;;;;;;4991718;28;20141;-71
2022/09/18 00:32:22;;;;;;;0.40;0.40;;;12.70;99.90;;;;;;4989448;28;20326;-72
2022/09/18 00:34:48;;;;;;;1.47;1.37;;;12.60;99.90;;;;;;4989377;28;20038;-73
2022/09/18 00:37:13;;;;;;;0.80;0.80;;;12.60;99.90;;;;;;4990575;28;20109;-72
2022/09/18 00:39:39;;;;;;;0.40;0.40;;;12.60;99.90;;;;;;4990020;28;20091;-71
2022/09/18 00:42:05;;;;;;;0.60;0.60;;;12.60;99.90;;;;;;4989602;28;20110;-72
2022/09/18 00:44:46;;;;;;;0.97;0.97;;;12.70;99.90;;;;;;4994516;28;20057;-71
2022/09/18 00:47:15;;;;;;;4.43;0.63;;;12.60;99.90;;;;;;5007644;28;20386;-72
2022/09/18 00:49:45;;;;;;;1.05;1.02;;;12.70;99.90;;;;;;5007522;28;20041;-71
2022/09/18 00:52:13;;;;;;;0.80;0.80;;;12.70;99.90;;;;;;5007484;28;20026;-71
2022/09/18 00:54:52;;;;;;;1.30;1.20;;;12.70;99.90;;;;;;5005884;28;20121;-72
2022/09/18 00:57:26;;;;;;;0.85;0.85;;;12.70;99.90;;;;;;4969804;28;20031;-71
2022/09/18 00:59:53;;;;;;;0.95;0.95;;;12.70;99.90;;;;;;4981006;28;20026;-70
2022/09/18 01:02:19;;;;;;;0.60;0.60;;;12.70;99.90;;;;;;5008962;28;20033;-72
2022/09/18 01:04:45;;;;;;;0.83;0.83;;;12.70;99.90;;;;;;5008530;28;20034;-71
2022/09/18 01:07:28;;;;;;;0.93;0.93;;;12.70;99.90;;;;;;5007044;28;20501;-70
2022/09/18 01:10:01;;;;;;;0.57;0.57;;;12.70;99.90;;;;;;5008916;28;20478;-71
2022/09/18 01:12:39;;;;;;;1.35;1.17;;;12.70;99.90;;;;;;5008354;28;20401;-72
2022/09/18 01:15:20;;;;;;;0.30;0.30;;;12.70;99.90;;;;;;5001090;28;20091;-72
2022/09/18 01:18:06;;;;;;;0.32;0.32;;;12.70;99.90;;;;;;4988927;28;20537;-71
2022/09/18 01:20:34;;;;;;;1.05;0.90;;;12.70;99.90;;;;;;5005972;28;20424;-71
2022/09/18 01:23:37;;;;;;;0.38;0.38;;;12.70;99.90;;;;;;4989751;28;20035;-72
2022/09/18 01:26:06;;;;;;;0.30;0.30;;;12.70;99.90;;;;;;4969419;28;20368;-72
2022/09/18 01:28:52;;;;;;;0.55;0.50;;;12.70;99.90;;;;;;4969372;28;20027;-71
2022/09/18 01:32:05;;;;;;;1.25;1.15;;;12.70;99.90;;;;;;4996382;28;20073;-72
2022/09/18 01:34:41;;;;;;;0.57;0.57;;;12.60;99.90;;;;;;5043101;28;20042;-71
2022/09/18 01:37:24;;;;;;;1.63;1.52;;;12.60;99.90;;;;;;5004626;28;20045;-72
2022/09/18 01:40:05;;;;;;;0.55;0.55;;;12.60;99.90;;;;;;5008410;28;20241;-72
2022/09/18 01:42:34;;;;;;;0.40;0.40;;;12.60;99.90;;;;;;5008026;28;20030;-70
2022/09/18 01:45:04;;;;;;;0.77;0.77;;;12.60;99.90;;;;;;5004995;28;20046;-72
2022/09/18 01:47:34;;;;;;;0.60;0.60;;;12.60;99.90;;;;;;4988317;28;20030;-70
2022/09/18 01:50:01;;;;;;;0.82;0.82;;;12.60;99.90;;;;;;4988766;28;20052;-70
2022/09/18 01:52:37;;;;;;;0.47;0.47;;;12.60;99.90;;;;;;4997192;28;20086;-71
2022/09/18 01:55:07;;;;;;;1.02;1.02;;;12.60;99.90;;;;;;5006410;28;20490;-73
2022/09/18 01:57:43;;;;;;;0.65;0.43;;;12.60;99.90;;;;;;5006493;28;20026;-71
2022/09/18 02:00:11;;;;;;;0.88;0.82;;;12.50;99.90;;;;;;5007214;28;20040;-72
2022/09/18 02:02:42;;;;;;;0.75;0.65;;;12.60;99.90;;;;;;4986779;28;20405;-70
2022/09/18 02:05:14;;;;;;;0.50;0.50;;;12.50;99.90;;;;;;4988089;28;20114;-70
2022/09/18 02:08:15;;;;;;;1.48;1.38;;;12.60;99.90;;;;;;4994839;28;20029;-72
2022/09/18 02:10:54;;;;;;;0.70;0.70;;;12.60;99.90;;;;;;5021732;28;20038;-72
2022/09/18 02:13:25;;;;;;;0.73;0.73;;;12.60;99.90;;;;;;5007560;28;20075;-70
2022/09/18 02:15:56;;;;;;;5.32;2.05;;;12.50;99.90;;;;;;5003225;28;20036;-73
2022/09/18 02:18:29;;;;;;;1.15;1.05;;;12.40;99.90;;;;;;4987904;28;20118;-72
2022/09/18 02:20:56;;;;;;;0.70;0.70;;;12.50;99.90;;;;;;4988349;28;20041;-71
2022/09/18 02:23:22;;;;;;;0.93;0.93;;;12.50;99.90;;;;;;4999664;28;20400;-72
2022/09/18 02:25:58;;;;;;;0.73;0.73;;;12.60;99.90;;;;;;5007348;28;20519;-71
2022/09/18 02:28:27;;;;;;;0.60;0.60;;;12.60;99.90;;;;;;5005920;28;20124;-71
2022/09/18 02:30:53;;;;;;;0.30;0.30;;;12.60;99.90;;;;;;5005455;28;20309;-71
2022/09/18 02:33:26;;;;;;;0.97;0.53;;;12.60;99.90;;;;;;5005847;28;20062;-70
2022/09/18 02:36:17;;;;;;;0.70;0.70;;;13.00;99.90;;;;;;5007244;28;20026;-71
2022/09/18 02:39:07;;;;;;;0.55;0.55;;;12.60;99.90;;;;;;4992258;28;20042;-70
2022/09/18 02:41:57;;;;;;;0.75;0.75;;;12.50;99.90;;;;;;5001913;28;20498;-71
2022/09/18 02:44:54;;;;;;;0.52;0.52;;;12.50;99.90;;;;;;4985900;28;20058;-71
2022/09/18 02:47:30;;;;;;;1.43;1.33;;;12.50;99.90;;;;;;4997775;28;20037;-72
2022/09/18 02:49:59;;;;;;;0.88;0.88;;;12.50;99.90;;;;;;5007351;28;20061;-71
2022/09/18 02:52:39;;;;;;;1.55;0.55;;;12.50;99.90;;;;;;5005914;28;20026;-71
2022/09/18 02:55:16;;;;;;;0.98;0.98;;;12.50;99.90;;;;;;4992878;28;20066;-70
2022/09/18 02:57:48;;;;;;;0.40;0.40;;;12.50;99.90;;;;;;5003490;28;20034;-70
2022/09/18 03:00:17;;;;;;;1.55;0.93;;;12.50;99.90;;;;;;5006798;28;20049;-71
2022/09/18 03:02:44;;;;;;;0.77;0.77;;;14.10;99.90;;;;;;5005075;28;20022;-73
2022/09/18 03:05:09;;;;;;;1.48;1.38;;;12.40;99.90;;;;;;5005781;28;20079;-71
2022/09/18 03:07:35;;;;;;;0.60;0.60;;;12.40;99.90;;;;;;4999620;28;20073;-72
2022/09/18 03:10:01;;;;;;;0.70;0.70;;;12.40;99.90;;;;;;4987843;28;20112;-70
2022/09/18 03:12:27;;;;;;;2.87;2.10;;;12.40;99.90;;;;;;4987192;28;20035;-70
2022/09/18 03:14:52;;;;;;;0.50;0.50;;;12.40;99.90;;;;;;4987708;28;20042;-72
2022/09/18 03:17:18;;;;;;;0.40;0.40;;;12.40;99.90;;;;;;5001540;28;20038;-70
2022/09/18 03:19:43;;;;;;;0.80;0.80;;;12.40;99.90;;;;;;5007053;28;20068;-71
2022/09/18 03:22:09;;;;;;;0.30;0.30;;;12.40;99.90;;;;;;5005506;28;20022;-71
2022/09/18 03:24:35;;;;;;;0.40;0.40;;;12.40;99.90;;;;;;4987411;28;20047;-70
2022/09/18 03:27:01;;;;;;;0.70;0.70;;;12.40;99.90;;;;;;4987109;28;20274;-70
2022/09/18 03:29:27;;;;;;;0.30;0.30;;;12.40;99.90;;;;;;4987408;28;20054;-71
2022/09/18 03:31:53;;;;;;;0.77;0.77;;;12.40;99.90;;;;;;4994428;28;20042;-71
2022/09/18 03:34:19;;;;;;;1.08;1.02;;;12.30;99.90;;;;;;5006439;28;20038;-71
2022/09/18 03:36:45;;;;;;;0.47;0.47;;;12.30;99.90;;;;;;5005096;28;20131;-70
2022/09/18 03:39:12;;;;;;;1.20;1.05;;;12.30;99.90;;;;;;5004938;28;20026;-72
2022/09/18 03:41:37;;;;;;;0.88;0.88;;;12.30;99.90;;;;;;5004625;28;20046;-71
2022/09/18 03:44:03;;;;;;;0.93;0.93;;;12.30;99.90;;;;;;5006363;28;20072;-73
2022/09/18 03:46:29;;;;;;;1.30;1.20;;;12.30;99.90;;;;;;5002085;28;20470;-73
2022/09/18 03:48:54;;;;;;;0.40;0.40;;;12.30;99.90;;;;;;4986845;28;20060;-70
2022/09/18 03:51:20;;;;;;;0.77;0.77;;;12.30;99.90;;;;;;4986656;28;20034;-70
2022/09/18 03:53:46;;;;;;;0.80;0.77;;;12.30;99.90;;;;;;4995177;28;20264;-71
2022/09/18 03:56:13;;;;;;;1.48;1.38;;;12.30;99.90;;;;;;5004823;28;20033;-72
2022/09/18 03:58:38;;;;;;;1.73;1.60;;;12.30;99.90;;;;;;5009059;28;20064;-72
2022/09/18 04:01:05;;;;;;;0.83;0.83;;;12.30;99.90;;;;;;5009509;28;20022;-70
2022/09/18 04:03:32;;;;;;;1.38;1.27;;;12.30;99.90;;;;;;4989539;28;20038;-70
2022/09/18 04:05:57;;;;;;;0.73;0.73;;;12.30;99.90;;;;;;4989775;28;20038;-72
2022/09/18 04:08:23;;;;;;;0.97;0.93;;;12.30;99.90;;;;;;4989240;28;20438;-71
2022/09/18 04:10:48;;;;;;;0.33;0.33;;;12.30;99.90;;;;;;4990642;28;20037;-71
2022/09/18 04:13:15;;;;;;;0.80;0.80;;;12.20;99.90;;;;;;4989748;28;20488;-72
2022/09/18 04:15:40;;;;;;;0.40;0.40;;;12.20;99.90;;;;;;4989525;28;20080;-71
2022/09/18 04:18:06;;;;;;;0.50;0.50;;;12.20;99.90;;;;;;5001065;28;20041;-72
2022/09/18 04:20:31;;;;;;;0.40;0.40;;;12.20;99.90;;;;;;5009379;28;20448;-71
2022/09/18 04:22:57;;;;;;;0.40;0.40;;;12.20;99.90;;;;;;5007419;28;20057;-71
2022/09/18 04:25:23;;;;;;;1.97;1.07;;;12.20;99.90;;;;;;5007573;28;20057;-72
2022/09/18 04:27:48;;;;;;;0.97;0.83;;;12.20;99.90;;;;;;5007561;28;20028;-71
2022/09/18 04:30:14;;;;;;;0.63;0.63;;;12.20;99.90;;;;;;5008913;28;20038;-70
2022/09/18 04:32:42;;;;;;;0.40;0.40;;;12.20;99.90;;;;;;4999662;28;20031;-71
2022/09/18 04:35:08;;;;;;;0.70;0.70;;;12.20;99.90;;;;;;4988791;28;20054;-72
2022/09/18 04:37:33;;;;;;;1.73;0.87;;;12.10;99.90;;;;;;4989477;28;20030;-71
2022/09/18 04:39:59;;;;;;;1.23;1.13;;;12.10;99.90;;;;;;5003240;28;20038;-71
2022/09/18 04:42:24;;;;;;;0.40;0.40;;;12.10;99.90;;;;;;5008813;28;20022;-70
2022/09/18 04:44:50;;;;;;;0.40;0.40;;;12.10;99.90;;;;;;5008506;28;20387;-71
2022/09/18 04:47:15;;;;;;;0.80;0.80;;;12.10;99.90;;;;;;5005969;28;20030;-71
2022/09/18 04:49:41;;;;;;;0.67;0.67;;;11.80;99.90;;;;;;4989378;28;20087;-71
2022/09/18 04:52:07;;;;;;;0.50;0.50;;;12.20;99.90;;;;;;4989025;28;20035;-71
2022/09/18 04:54:32;;;;;;;0.50;0.50;;;12.20;99.90;;;;;;4990319;28;20034;-72
2022/09/18 04:56:58;;;;;;;0.63;0.63;;;12.10;99.90;;;;;;4987735;28;20034;-71
2022/09/18 04:59:23;;;;;;;0.50;0.50;;;12.20;99.90;;;;;;4989366;28;20030;-70
2022/09/18 05:01:49;;;;;;;0.60;0.60;;;12.10;99.90;;;;;;4988909;28;20111;-71
2022/09/18 05:04:15;;;;;;;0.60;0.60;;;12.20;99.90;;;;;;5005654;28;20037;-72
2022/09/18 05:06:41;;;;;;;0.50;0.50;;;12.20;99.90;;;;;;5007181;28;20029;-71
2022/09/18 05:09:06;;;;;;;0.40;0.40;;;12.30;99.90;;;;;;5005992;28;20532;-71
2022/09/18 05:11:32;;;;;;;0.30;0.30;;;12.80;99.90;;;;;;5008369;28;20033;-72
2022/09/18 05:13:58;;;;;;;0.30;0.30;;;12.30;99.90;;;;;;5008387;28;20036;-70
2022/09/18 05:16:24;;;;;;;0.40;0.40;;;12.30;99.90;;;;;;5008522;28;20030;-72
2022/09/18 05:18:51;;;;;;;0.40;0.40;;;12.20;99.90;;;;;;5007934;28;20034;-71
2022/09/18 05:21:17;;;;;;;0.30;0.30;;;12.20;99.90;;;;;;5006965;28;20121;-72
2022/09/18 05:23:44;;;;;;;1.70;0.70;;;12.20;99.90;;;;;;5008355;28;20041;-73
2022/09/18 05:26:10;;;;;;;;;;;12.30;99.90;;;;;;5006045;28;20746;-72
2022/09/18 05:28:35;;;;;;;0.30;0.30;;;12.30;99.90;;;;;;5007424;28;20411;-73
2022/09/18 05:31:01;;;;;;;0.60;0.60;;;12.30;99.90;;;;;;5007918;28;20356;-71
2022/09/18 05:33:27;;;;;;;1.23;1.13;;;12.20;99.90;;;;;;5001412;28;20142;-70
2022/09/18 05:35:54;;;;;;;0.30;0.30;;;13.70;99.90;;;;;;4988513;28;20045;-70
2022/09/18 05:38:20;;;;;;;0.30;0.30;;;12.20;99.90;;;;;;4988630;28;20022;-72
2022/09/18 05:40:47;;;;;;;0.30;0.30;;;12.20;99.90;;;;;;4989305;28;20088;-71
2022/09/18 05:43:14;;;;;;;0.75;0.75;;;12.20;99.90;;;;;;4988295;28;20538;-71
2022/09/18 05:45:39;;;;;;;1.27;1.17;;;12.20;99.90;;;;;;4988160;28;20054;-71
2022/09/18 05:48:06;;;;;;;0.90;0.90;;;12.10;99.90;;;;;;4989561;28;20035;-72
2022/09/18 05:50:33;;;;;;;1.02;1.02;;;12.20;99.90;;;;;;5006350;28;20030;-71
2022/09/18 05:53:04;;;;;;;0.38;0.38;;;12.20;99.90;;;;;;5007792;28;20086;-72
2022/09/18 05:55:31;;;;;;;1.00;0.63;;;12.10;99.90;;;;;;5005966;28;20518;-71
2022/09/18 05:57:57;;;;;;;;;;;12.10;99.90;;;;;;5006454;28;20028;-71
2022/09/18 06:00:25;;;;;;;0.50;0.50;;;12.20;99.90;;;;;;5007513;28;20373;-72
2022/09/18 06:02:55;;;;;;;0.57;0.57;;;12.10;99.90;;;;;;5007376;28;20026;-71
2022/09/18 06:05:22;;;;;;;1.05;1.02;;;12.20;99.90;;;;;;4989234;28;20030;-71
2022/09/18 06:07:48;;;;;;;;;;;12.10;99.90;;;;;;4988643;28;20057;-71
2022/09/18 06:10:14;;;;;;;0.30;0.30;;;12.10;99.90;;;;;;4988884;28;19910;-72
2022/09/18 06:12:40;;;;;;;0.40;0.40;;;12.10;99.90;;;;;;4988104;28;20067;-70
2022/09/18 06:15:06;;;;;;;1.00;0.80;;;12.10;99.90;;;;;;4987739;28;20034;-71
2022/09/18 06:17:32;;;;;;;2.42;1.80;;;12.10;99.90;;;;;;4987537;28;20514;-70
2022/09/18 06:19:58;;;;;;;0.80;0.80;;;12.10;99.90;;;;;;4999943;28;20087;-70
2022/09/18 06:22:24;;;;;;;1.10;1.08;;;12.10;99.90;;;;;;5007208;28;20022;-70
2022/09/18 06:24:50;;;;;;;0.77;0.77;;;12.10;99.90;;;;;;5006996;28;20050;-71
2022/09/18 06:27:16;;;;;;;2.50;1.33;;;12.10;99.90;;;;;;5003891;28;20123;-71
2022/09/18 06:29:42;;;;;;;1.57;1.47;;;12.10;99.90;;;;;;4986306;28;20088;-71
2022/09/18 06:32:08;;;;;;;1.25;1.15;;;12.10;99.90;;;;;;4986114;28;20038;-71
2022/09/18 06:34:34;;;;;;;4.32;2.75;;;12.10;99.90;;;;;;4988417;28;20474;-72
2022/09/18 06:36:59;;;;;;;3.00;2.30;;;12.80;99.90;;;;;;4987777;28;20087;-71
2022/09/18 06:39:25;;;;;;;2.00;1.90;;;12.20;99.90;;;;;;4987980;28;20083;-71
2022/09/18 06:41:51;;;;;;;0.40;0.40;;;12.20;99.90;;;;;;4988562;28;20329;-71
2022/09/18 06:44:16;;;;;;;3.30;1.90;;;12.20;99.90;;;;;;4987487;28;20050;-69
2022/09/18 06:46:42;;;;;;;3.80;3.10;;;12.20;99.90;;;;;;4987504;28;20058;-70
2022/09/18 06:49:07;;;;;;;3.30;1.00;;;12.20;99.90;;;;;;4990077;28;20042;-71
2022/09/18 06:51:33;;;;;;;1.17;1.13;;;12.10;99.90;;;;;;5006856;28;20030;-71
2022/09/18 06:53:59;;;;;;;1.60;1.53;;;12.30;99.90;;;;;;5006945;28;20069;-72
2022/09/18 06:56:24;;;;;;;1.63;1.53;;;12.30;99.90;;;;;;5004821;28;20366;-70
2022/09/18 06:58:53;;;;;;;0.80;0.80;;;12.30;99.90;;;;;;5003705;28;20486;-71
2022/09/18 07:01:18;;;;;;;1.73;1.30;;;12.30;99.90;;;;;;5005212;28;20113;-71
2022/09/18 07:03:47;;;;;;;1.37;1.27;;;12.30;99.90;;;;;;5006898;28;20113;-71
2022/09/18 07:06:13;;;;;;;1.23;1.02;;;12.40;99.90;;;;;;5005021;28;20026;-72
2022/09/18 07:08:38;;;;;;;0.77;0.77;;;12.40;99.90;;;;;;5006945;28;20050;-71
2022/09/18 07:11:04;;;;;;;0.47;0.47;;;13.60;99.90;;;;;;5005089;28;20414;-70
2022/09/18 07:13:33;;;;;;;1.03;1.03;;;12.30;99.90;;;;;;5005008;28;20477;-71
2022/09/18 07:15:59;;;;;;;1.65;1.48;;;12.40;99.90;;;;;;5006563;28;20026;-72
2022/09/18 07:18:25;;;;;;;0.30;0.30;;;12.30;99.90;;;;;;5005294;28;20390;-70
2022/09/18 07:20:52;;;;;;;0.90;0.90;;;12.30;99.90;;;;;;4992346;28;20035;-71
2022/09/18 07:23:18;;;;;;;2.20;0.98;;;12.30;99.90;;;;;;4987077;28;20038;-69
2022/09/18 07:25:45;;;;;;;0.82;0.82;;;12.40;99.90;;;;;;4987106;28;20023;-71
2022/09/18 07:28:11;;;;;;;0.52;0.52;;;12.40;99.90;;;;;;4989404;28;20043;-72
2022/09/18 07:30:38;;;;;;;0.53;0.53;;;12.50;99.90;;;;;;4985242;28;20034;-70
2022/09/18 07:33:04;;;;;;;;;;;12.60;99.90;;;;;;4990512;28;20113;-70
2022/09/18 07:35:31;;;;;;;0.95;0.93;;;12.40;99.90;;;;;;4997678;28;19917;-72
2022/09/18 07:38:02;;;;;;;0.47;0.43;;;12.40;99.90;;;;;;5008483;28;20030;-72
2022/09/18 07:40:28;;;;;;;0.30;0.30;;;12.50;99.90;;;;;;5009776;28;20481;-70
2022/09/18 07:43:06;;;;;;;1.23;1.15;;;12.50;99.90;;;;;;5007187;28;20109;-72
2022/09/18 07:45:31;;;;;;;;;;;12.50;99.90;;;;;;5010087;28;20072;-72
2022/09/18 07:48:04;;;;;;;0.40;0.40;;;12.50;99.90;;;;;;5009644;28;19921;-71
2022/09/18 07:50:29;;;;;;;0.85;0.85;;;12.50;99.90;;;;;;5002490;28;20469;-70
2022/09/18 07:52:57;;;;;;;1.13;1.00;;;12.60;99.90;;;;;;4989911;28;20356;-70
2022/09/18 07:55:25;;;;;;;0.52;0.52;;;12.60;99.90;;;;;;4989764;28;20034;-71
2022/09/18 07:57:59;;;;;;;0.20;0.20;;;12.70;99.90;;;;;;4990819;28;20072;-71
2022/09/18 08:00:26;;;;;;;0.40;0.40;;;12.70;99.90;;;;;;4992117;28;20038;-71
2022/09/18 08:03:02;;;;;;;0.45;0.45;;;12.70;99.90;;;;;;4989798;28;20046;-72
2022/09/18 08:05:28;;;;;;;1.00;0.80;;;12.60;99.90;;;;;;4992728;28;20029;-72
2022/09/18 08:07:53;;;;;;;0.40;0.40;;;12.60;99.90;;;;;;5009259;28;20042;-72
2022/09/18 08:10:19;;;;;;;0.40;0.40;;;12.50;99.90;;;;;;5009538;28;20026;-71
2022/09/18 08:12:44;;;;;;;0.83;0.83;;;12.60;99.90;;;;;;5007520;28;20419;-72
2022/09/18 08:15:10;;;;;;;0.40;0.40;;;12.60;99.90;;;;;;5009272;28;20034;-70
2022/09/18 08:17:44;;;;;;;0.90;0.90;;;12.70;99.90;;;;;;5009188;28;20184;-71
2022/09/18 08:20:09;;;;;;;0.52;0.52;;;12.70;99.90;;;;;;5009318;28;20034;-71
2022/09/18 08:22:39;;;;;;;0.33;0.33;;;12.70;99.90;;;;;;4990593;28;20031;-73
2022/09/18 08:25:06;;;;;;;0.60;0.60;;;12.70;99.90;;;;;;4989536;28;20167;-71
2022/09/18 08:27:35;;;;;;;0.90;0.90;;;12.70;99.90;;;;;;4989465;28;20031;-71
2022/09/18 08:30:01;;;;;;;0.63;0.63;;;12.70;99.90;;;;;;4991160;28;20048;-72
2022/09/18 08:32:26;;;;;;;0.50;0.50;;;12.80;99.90;;;;;;4968698;28;20045;-69
2022/09/18 08:34:52;;;;;;;0.47;0.47;;;12.80;99.90;;;;;;4968674;28;20069;-70
2022/09/18 08:37:17;;;;;;;0.77;0.77;;;12.80;99.90;;;;;;4985800;28;20049;-69
2022/09/18 08:39:43;;;;;;;0.70;0.70;;;12.80;99.90;;;;;;4989590;28;20041;-70
2022/09/18 08:42:34;;;;;;;0.67;0.67;;;12.80;99.90;;;;;;4988653;28;20458;-71
2022/09/18 08:45:16;;;;;;;0.35;0.35;;;12.80;99.90;;;;;;4969870;28;20054;-71
2022/09/18 08:47:48;;;;;;;0.30;0.30;;;12.90;99.90;;;;;;4969831;28;20030;-72
2022/09/18 08:50:24;;;;;;;0.30;0.30;;;12.80;99.90;;;;;;4968528;28;20034;-70
2022/09/18 08:53:02;;;;;;;0.50;0.50;;;12.90;99.90;;;;;;5003585;28;20092;-71
2022/09/18 08:55:41;;;;;;;0.20;0.20;;;13.00;99.90;;;;;;5007238;28;20549;-71
2022/09/18 08:58:12;;;;;;;1.45;0.95;;;13.10;99.90;;;;;;5006669;28;20030;-70
2022/09/18 09:00:49;;;;;;;0.30;0.30;;;13.00;99.90;;;;;;5006883;28;20163;-72
2022/09/18 09:03:55;;;;;;;0.40;0.40;;;13.00;99.90;;;;;;5008696;28;20505;-72
2022/09/18 09:06:27;;;;;;;0.52;0.52;;;13.10;99.90;;;;;;5004112;28;20478;-69
2022/09/18 09:09:28;;;;;;;0.30;0.30;;;13.10;99.90;;;;;;4988803;28;20055;-69
2022/09/18 09:12:18;;;;;;;0.45;0.45;;;13.20;99.90;;;;;;4989042;28;20393;-69
2022/09/18 09:15:10;;;;;;;0.32;0.32;;;13.20;99.90;;;;;;4990117;28;20026;-69
2022/09/18 09:18:16;;;;;;;0.65;0.65;;;13.30;99.90;;;;;;4987501;28;20045;-70
2022/09/18 09:20:54;;;;;;;0.22;0.22;;;13.40;99.90;;;;;;4990356;28;20556;-70
2022/09/18 09:23:53;;;;;;;0.28;0.28;;;13.40;99.90;;;;;;4989274;28;20428;-69
2022/09/18 09:26:21;;;;;;;0.30;0.30;;;13.40;99.90;;;;;;4988773;28;20022;-68
2022/09/18 09:29:00;;;;;;;0.55;0.55;;;13.50;99.90;;;;;;4990721;28;20392;-70
2022/09/18 09:31:38;;;;;;;0.70;0.70;;;13.50;99.90;;;;;;4989660;28;20035;-70
2022/09/18 09:34:12;;;;;;;0.30;0.30;;;13.50;99.90;;;;;;4987319;28;20050;-70
2022/09/18 09:36:40;;;;;;;0.30;0.30;;;13.60;99.90;;;;;;4988122;28;20523;-69
2022/09/18 09:39:35;;;;;;;0.28;0.28;;;13.60;99.90;;;;;;4969050;28;20402;-71
2022/09/18 09:42:16;;;;;;;0.30;0.30;;;13.70;99.90;;;;;;4968978;28;20021;-70
2022/09/18 09:44:51;;;;;;;1.15;1.08;;;13.70;99.90;;;;;;4984102;28;20150;-72
2022/09/18 09:47:52;;;;;;;0.75;0.75;;;13.70;99.90;;;;;;4988484;28;20052;-71
2022/09/18 09:51:00;;;;;;;0.60;0.60;;;13.80;99.90;;;;;;5001264;28;20048;-74
2022/09/18 09:53:27;;;;;;;0.85;0.85;;;13.70;99.90;;;;;;5025302;28;20535;-73
2022/09/18 09:56:01;;;;;;;0.70;0.70;;;13.70;99.90;;;;;;5007910;28;20406;-73
2022/09/18 09:58:48;;;;;;;0.73;0.73;;;13.70;99.90;;;;;;5005710;28;20037;-73
2022/09/18 10:01:55;;;;;;;0.70;0.70;;;13.80;99.90;;;;;;4986800;28;20026;-73
2022/09/18 10:04:40;;;;;;;0.55;0.55;;;13.70;99.90;;;;;;4991256;28;20425;-71
2022/09/18 10:07:17;;;;;;;0.50;0.50;;;13.80;99.90;;;;;;4986852;28;20026;-72
2022/09/18 10:10:15;;;;;;;;;;;13.80;99.90;;;;;;4988149;28;20113;-72
2022/09/18 10:12:51;;;;;;;0.20;0.20;;;13.70;99.90;;;;;;4966260;28;19913;-72
2022/09/18 10:15:37;;;;;;;0.60;0.60;;;13.80;99.90;;;;;;4968651;28;20482;-72
2022/09/18 10:18:07;;;;;;;0.57;0.57;;;13.70;99.90;;;;;;4968526;28;20037;-72
2022/09/18 10:20:35;;;;;;;0.30;0.30;;;13.70;99.90;;;;;;4968797;28;20041;-73
2022/09/18 10:23:21;;;;;;;0.50;0.50;;;13.70;99.90;;;;;;4968565;28;20038;-72
2022/09/18 10:25:53;;;;;;;0.98;0.70;;;13.80;99.90;;;;;;4968536;28;20015;-72
2022/09/18 10:28:20;;;;;;;0.32;0.32;;;13.70;99.90;;;;;;4977126;28;20026;-71
2022/09/18 10:30:53;;;;;;;2.03;1.08;;;13.80;99.90;;;;;;4986481;28;20037;-71
2022/09/18 10:33:38;;;;;;;1.55;0.93;;;13.80;99.90;;;;;;4986590;28;20092;-72
2022/09/18 10:36:13;;;;;;;0.75;0.75;;;13.70;99.90;;;;;;4987720;28;20020;-71
2022/09/18 10:38:39;;;;;;;1.75;0.98;;;13.70;99.90;;;;;;4987852;28;20127;-72
2022/09/18 10:41:33;;;;;;;1.43;1.33;;;13.70;99.90;;;;;;4986229;28;20083;-72
2022/09/18 10:44:25;;;;;;;1.25;1.08;;;13.70;99.90;;;;;;4995970;28;20042;-72
2022/09/18 10:46:59;;;;;;;0.80;0.80;;;13.80;99.90;;;;;;5008479;28;20393;-71
2022/09/18 10:49:48;;;;;;;0.70;0.70;;;13.80;99.90;;;;;;5007180;28;20115;-71
2022/09/18 10:52:36;;;;;;;0.75;0.70;;;13.80;99.90;;;;;;4998922;28;20037;-73
2022/09/18 10:55:06;;;;;;;0.50;0.50;;;13.90;99.90;;;;;;4987914;28;20043;-71
2022/09/18 10:57:37;;;;;;;1.08;1.08;;;13.70;99.90;;;;;;4987462;28;20018;-72
2022/09/18 11:00:20;;;;;;;0.98;0.98;;;13.80;99.90;;;;;;4987503;28;20125;-73
2022/09/18 11:02:52;;;;;;;1.20;1.17;;;13.80;99.90;;;;;;4986844;28;20023;-71
2022/09/18 11:05:28;;;;;;;0.68;0.68;;;13.80;99.90;;;;;;4987369;28;20083;-72
2022/09/18 11:07:56;;;;;;;0.88;0.88;;;13.80;99.90;;;;;;4998573;28;20041;-72
